sensor_id;sensor_type;location;lat;lon;timestamp;temperature;humidity
1417;DHT22;703;51.162;13.574;2022-08-14T00:02:02;17.20;99.90
1417;DHT22;703;51.162;13.574;2022-08-14T00:04:29;17.20;99.90
1417;DHT22;703;51.162;13.574;2022-08-14T00:06:55;17.20;99.90
1417;DHT22;703;51.162;13.574;2022-08-14T00:09:20;17.10;99.90
1417;DHT22;703;51.162;13.574;2022-08-14T00:11:46;17.10;99.90
1417;DHT22;703;51.162;13.574;2022-08-14T00:14:11;17.10;99.90
1417;DHT22;703;51.162;13.574;2022-08-14T00:16:37;17.10;99.90
1417;DHT22;703;51.162;13.574;2022-08-14T00:19:03;17.10;99.90
1417;DHT22;703;51.162;13.574;2022-08-14T00:21:29;17.10;99.90
1417;DHT22;703;51.162;13.574;2022-08-14T00:23:54;17.00;99.90
1417;DHT22;703;51.162;13.574;2022-08-14T00:26:22;17.00;99.90
1417;DHT22;703;51.162;13.574;2022-08-14T00:28:49;16.90;99.90
1417;DHT22;703;51.162;13.574;2022-08-14T00:31:14;16.90;99.90
1417;DHT22;703;51.162;13.574;2022-08-14T00:33:40;16.90;99.90
1417;DHT22;703;51.162;13.574;2022-08-14T00:36:06;16.90;99.90
1417;DHT22;703;51.162;13.574;2022-08-14T00:38:32;16.90;99.90
1417;DHT22;703;51.162;13.574;2022-08-14T00:40:58;16.90;99.90
1417;DHT22;703;51.162;13.574;2022-08-14T00:43:24;16.90;99.90
1417;DHT22;703;51.162;13.574;2022-08-14T00:45:50;16.90;99.90
1417;DHT22;703;51.162;13.574;2022-08-14T00:48:16;16.90;99.90
1417;DHT22;703;51.162;13.574;2022-08-14T00:50:43;16.90;99.90
1417;DHT22;703;51.162;13.574;2022-08-14T00:53:09;16.90;99.90
1417;DHT22;703;51.162;13.574;2022-08-14T00:55:36;16.90;99.90
1417;DHT22;703;51.162;13.574;2022-08-14T00:58:04;16.90;99.90
1417;DHT22;703;51.162;13.574;2022-08-14T01:00:49;16.80;99.90
1417;DHT22;703;51.162;13.574;2022-08-14T01:03:15;16.80;99.90
1417;DHT22;703;51.162;13.574;2022-08-14T01:05:41;16.80;99.90
1417;DHT22;703;51.162;13.574;2022-08-14T01:08:18;16.70;99.90
1417;DHT22;703;51.162;13.574;2022-08-14T01:10:44;16.60;99.90
1417;DHT22;703;51.162;13.574;2022-08-14T01:13:19;16.60;99.90
1417;DHT22;703;51.162;13.574;2022-08-14T01:15:46;16.60;99.90
1417;DHT22;703;51.162;13.574;2022-08-14T01:18:13;16.60;99.90
1417;DHT22;703;51.162;13.574;2022-08-14T01:20:58;16.60;99.90
1417;DHT22;703;51.162;13.574;2022-08-14T01:23:44;16.50;99.90
1417;DHT22;703;51.162;13.574;2022-08-14T01:26:11;16.50;99.90
1417;DHT22;703;51.162;13.574;2022-08-14T01:28:38;16.50;99.90
1417;DHT22;703;51.162;13.574;2022-08-14T01:31:06;16.40;99.90
1417;DHT22;703;51.162;13.574;2022-08-14T01:33:34;16.40;99.90
1417;DHT22;703;51.162;13.574;2022-08-14T01:36:00;16.40;99.90
1417;DHT22;703;51.162;13.574;2022-08-14T01:38:27;16.40;99.90
1417;DHT22;703;51.162;13.574;2022-08-14T01:41:00;16.30;99.90
1417;DHT22;703;51.162;13.574;2022-08-14T01:43:26;16.30;99.90
1417;DHT22;703;51.162;13.574;2022-08-14T01:45:57;16.30;99.90
1417;DHT22;703;51.162;13.574;2022-08-14T01:48:25;16.30;99.90
1417;DHT22;703;51.162;13.574;2022-08-14T01:50:58;16.30;99.90
1417;DHT22;703;51.162;13.574;2022-08-14T01:53:26;16.30;99.90
1417;DHT22;703;51.162;13.574;2022-08-14T01:55:54;16.30;99.90
1417;DHT22;703;51.162;13.574;2022-08-14T01:58:22;16.30;99.90
1417;DHT22;703;51.162;13.574;2022-08-14T02:00:54;16.20;99.90
1417;DHT22;703;51.162;13.574;2022-08-14T02:03:24;16.20;99.90
1417;DHT22;703;51.162;13.574;2022-08-14T02:05:50;16.20;99.90
1417;DHT22;703;51.162;13.574;2022-08-14T02:08:15;16.10;99.90
1417;DHT22;703;51.162;13.574;2022-08-14T02:10:41;16.10;99.90
1417;DHT22;703;51.162;13.574;2022-08-14T02:13:08;16.10;99.90
1417;DHT22;703;51.162;13.574;2022-08-14T02:15:35;16.10;99.90
1417;DHT22;703;51.162;13.574;2022-08-14T02:18:03;16.10;99.90
1417;DHT22;703;51.162;13.574;2022-08-14T02:20:30;16.10;99.90
1417;DHT22;703;51.162;13.574;2022-08-14T02:23:01;16.10;99.90
1417;DHT22;703;51.162;13.574;2022-08-14T02:25:29;16.00;99.90
1417;DHT22;703;51.162;13.574;2022-08-14T02:27:55;16.00;99.90
1417;DHT22;703;51.162;13.574;2022-08-14T02:30:24;16.00;99.90
1417;DHT22;703;51.162;13.574;2022-08-14T02:32:51;16.10;99.90
1417;DHT22;703;51.162;13.574;2022-08-14T02:35:17;16.10;99.90
1417;DHT22;703;51.162;13.574;2022-08-14T02:37:45;16.10;99.90
1417;DHT22;703;51.162;13.574;2022-08-14T02:40:11;16.10;99.90
1417;DHT22;703;51.162;13.574;2022-08-14T02:42:37;16.10;99.90
1417;DHT22;703;51.162;13.574;2022-08-14T02:45:04;16.10;99.90
1417;DHT22;703;51.162;13.574;2022-08-14T02:47:30;16.10;99.90
1417;DHT22;703;51.162;13.574;2022-08-14T02:49:59;16.20;99.90
1417;DHT22;703;51.162;13.574;2022-08-14T02:52:25;16.20;99.90
1417;DHT22;703;51.162;13.574;2022-08-14T02:54:52;16.20;99.90
1417;DHT22;703;51.162;13.574;2022-08-14T02:57:18;16.20;99.90
1417;DHT22;703;51.162;13.574;2022-08-14T02:59:46;16.20;99.90
1417;DHT22;703;51.162;13.574;2022-08-14T03:02:13;16.20;99.90
1417;DHT22;703;51.162;13.574;2022-08-14T03:04:41;16.20;99.90
1417;DHT22;703;51.162;13.574;2022-08-14T03:07:07;16.20;99.90
1417;DHT22;703;51.162;13.574;2022-08-14T03:09:35;16.20;99.90
1417;DHT22;703;51.162;13.574;2022-08-14T03:12:01;16.20;99.90
1417;DHT22;703;51.162;13.574;2022-08-14T03:14:27;16.20;99.90
1417;DHT22;703;51.162;13.574;2022-08-14T03:16:53;13.10;99.90
1417;DHT22;703;51.162;13.574;2022-08-14T03:19:20;16.30;99.90
1417;DHT22;703;51.162;13.574;2022-08-14T03:21:45;16.30;99.90
1417;DHT22;703;51.162;13.574;2022-08-14T03:24:11;16.30;99.90
1417;DHT22;703;51.162;13.574;2022-08-14T03:26:42;16.30;99.90
1417;DHT22;703;51.162;13.574;2022-08-14T03:29:10;16.30;99.90
1417;DHT22;703;51.162;13.574;2022-08-14T03:31:37;16.30;99.90
1417;DHT22;703;51.162;13.574;2022-08-14T03:34:05;16.30;99.90
1417;DHT22;703;51.162;13.574;2022-08-14T03:36:35;16.20;99.90
1417;DHT22;703;51.162;13.574;2022-08-14T03:39:04;16.30;99.90
1417;DHT22;703;51.162;13.574;2022-08-14T03:41:30;16.30;99.90
1417;DHT22;703;51.162;13.574;2022-08-14T03:43:58;16.30;99.90
1417;DHT22;703;51.162;13.574;2022-08-14T03:46:26;16.30;99.90
1417;DHT22;703;51.162;13.574;2022-08-14T03:48:53;16.30;99.90
1417;DHT22;703;51.162;13.574;2022-08-14T03:51:19;16.30;99.90
1417;DHT22;703;51.162;13.574;2022-08-14T03:53:46;16.30;99.90
1417;DHT22;703;51.162;13.574;2022-08-14T03:56:14;16.30;99.90
1417;DHT22;703;51.162;13.574;2022-08-14T03:58:43;16.40;99.90
1417;DHT22;703;51.162;13.574;2022-08-14T04:01:13;16.40;99.90
1417;DHT22;703;51.162;13.574;2022-08-14T04:03:39;16.40;99.90
1417;DHT22;703;51.162;13.574;2022-08-14T04:06:06;16.40;99.90
1417;DHT22;703;51.162;13.574;2022-08-14T04:08:37;16.30;99.90
1417;DHT22;703;51.162;13.574;2022-08-14T04:11:04;16.20;99.90
1417;DHT22;703;51.162;13.574;2022-08-14T04:13:31;16.20;99.90
1417;DHT22;703;51.162;13.574;2022-08-14T04:15:57;16.20;99.90
1417;DHT22;703;51.162;13.574;2022-08-14T04:18:25;16.30;99.90
1417;DHT22;703;51.162;13.574;2022-08-14T04:20:50;16.30;99.90
1417;DHT22;703;51.162;13.574;2022-08-14T04:23:16;16.30;99.90
1417;DHT22;703;51.162;13.574;2022-08-14T04:25:42;16.30;99.90
1417;DHT22;703;51.162;13.574;2022-08-14T04:28:09;16.30;99.90
1417;DHT22;703;51.162;13.574;2022-08-14T04:30:36;16.40;99.90
1417;DHT22;703;51.162;13.574;2022-08-14T04:33:06;16.50;99.90
1417;DHT22;703;51.162;13.574;2022-08-14T04:35:33;16.50;99.90
1417;DHT22;703;51.162;13.574;2022-08-14T04:38:00;16.50;99.90
1417;DHT22;703;51.162;13.574;2022-08-14T04:40:48;16.60;99.90
1417;DHT22;703;51.162;13.574;2022-08-14T04:43:32;16.60;99.90
1417;DHT22;703;51.162;13.574;2022-08-14T04:46:05;16.60;99.90
1417;DHT22;703;51.162;13.574;2022-08-14T04:48:31;16.70;99.90
1417;DHT22;703;51.162;13.574;2022-08-14T04:50:58;16.70;99.90
1417;DHT22;703;51.162;13.574;2022-08-14T04:53:27;16.80;99.90
1417;DHT22;703;51.162;13.574;2022-08-14T04:55:53;16.90;99.90
1417;DHT22;703;51.162;13.574;2022-08-14T04:58:21;16.90;99.90
1417;DHT22;703;51.162;13.574;2022-08-14T05:00:50;16.90;99.90
1417;DHT22;703;51.162;13.574;2022-08-14T05:03:20;17.00;99.90
1417;DHT22;703;51.162;13.574;2022-08-14T05:05:50;17.00;99.90
1417;DHT22;703;51.162;13.574;2022-08-14T05:08:17;17.10;99.90
1417;DHT22;703;51.162;13.574;2022-08-14T05:10:45;17.10;99.90
1417;DHT22;703;51.162;13.574;2022-08-14T05:13:11;17.30;99.90
1417;DHT22;703;51.162;13.574;2022-08-14T05:15:39;17.30;99.90
1417;DHT22;703;51.162;13.574;2022-08-14T05:18:08;17.30;99.90
1417;DHT22;703;51.162;13.574;2022-08-14T05:20:41;17.50;99.90
1417;DHT22;703;51.162;13.574;2022-08-14T05:23:11;17.50;99.90
1417;DHT22;703;51.162;13.574;2022-08-14T05:25:37;17.70;99.90
1417;DHT22;703;51.162;13.574;2022-08-14T05:28:10;17.90;99.90
1417;DHT22;703;51.162;13.574;2022-08-14T05:30:38;18.10;99.90
1417;DHT22;703;51.162;13.574;2022-08-14T05:33:04;18.30;99.90
1417;DHT22;703;51.162;13.574;2022-08-14T05:35:31;18.30;99.90
1417;DHT22;703;51.162;13.574;2022-08-14T05:38:09;18.50;99.90
1417;DHT22;703;51.162;13.574;2022-08-14T05:45:28;19.00;99.90
1417;DHT22;703;51.162;13.574;2022-08-14T05:47:54;19.10;99.90
1417;DHT22;703;51.162;13.574;2022-08-14T05:50:19;19.40;99.90
1417;DHT22;703;51.162;13.574;2022-08-14T05:52:49;19.50;99.90
1417;DHT22;703;51.162;13.574;2022-08-14T05:55:16;19.40;99.90
1417;DHT22;703;51.162;13.574;2022-08-14T06:00:22;19.60;99.90
1417;DHT22;703;51.162;13.574;2022-08-14T06:02:49;19.60;99.90
1417;DHT22;703;51.162;13.574;2022-08-14T06:05:14;19.80;99.90
1417;DHT22;703;51.162;13.574;2022-08-14T06:07:40;19.20;99.90
1417;DHT22;703;51.162;13.574;2022-08-14T06:10:07;20.00;99.90
1417;DHT22;703;51.162;13.574;2022-08-14T06:12:34;20.10;99.90
1417;DHT22;703;51.162;13.574;2022-08-14T06:15:00;20.10;99.90
1417;DHT22;703;51.162;13.574;2022-08-14T06:17:26;20.20;99.90
1417;DHT22;703;51.162;13.574;2022-08-14T06:19:52;20.30;99.90
1417;DHT22;703;51.162;13.574;2022-08-14T06:22:18;20.30;99.90
1417;DHT22;703;51.162;13.574;2022-08-14T06:24:44;20.30;99.90
1417;DHT22;703;51.162;13.574;2022-08-14T06:27:09;20.30;99.90
1417;DHT22;703;51.162;13.574;2022-08-14T06:29:36;20.40;99.90
1417;DHT22;703;51.162;13.574;2022-08-14T06:32:02;20.50;99.90
1417;DHT22;703;51.162;13.574;2022-08-14T06:34:28;20.60;99.90
1417;DHT22;703;51.162;13.574;2022-08-14T06:36:54;20.70;99.90
1417;DHT22;703;51.162;13.574;2022-08-14T06:39:23;20.90;99.90
1417;DHT22;703;51.162;13.574;2022-08-14T06:41:49;20.90;99.90
1417;DHT22;703;51.162;13.574;2022-08-14T06:44:15;21.20;99.90
1417;DHT22;703;51.162;13.574;2022-08-14T06:46:40;21.30;99.90
1417;DHT22;703;51.162;13.574;2022-08-14T06:49:06;21.20;99.90
1417;DHT22;703;51.162;13.574;2022-08-14T06:51:32;21.40;99.90
1417;DHT22;703;51.162;13.574;2022-08-14T06:53:59;21.70;99.90
1417;DHT22;703;51.162;13.574;2022-08-14T06:56:25;21.90;99.90
1417;DHT22;703;51.162;13.574;2022-08-14T06:58:51;22.00;99.90
1417;DHT22;703;51.162;13.574;2022-08-14T07:01:16;22.30;99.90
1417;DHT22;703;51.162;13.574;2022-08-14T07:04:00;22.60;99.90
1417;DHT22;703;51.162;13.574;2022-08-14T07:06:44;22.60;99.90
1417;DHT22;703;51.162;13.574;2022-08-14T07:09:10;22.60;99.90
1417;DHT22;703;51.162;13.574;2022-08-14T07:11:36;22.60;99.90
1417;DHT22;703;51.162;13.574;2022-08-14T07:14:02;22.60;99.90
1417;DHT22;703;51.162;13.574;2022-08-14T07:16:28;22.80;99.90
1417;DHT22;703;51.162;13.574;2022-08-14T07:18:53;23.10;99.90
1417;DHT22;703;51.162;13.574;2022-08-14T07:21:19;23.30;99.90
1417;DHT22;703;51.162;13.574;2022-08-14T07:23:44;23.70;99.90
1417;DHT22;703;51.162;13.574;2022-08-14T07:26:10;23.90;99.90
1417;DHT22;703;51.162;13.574;2022-08-14T07:28:39;24.00;99.90
1417;DHT22;703;51.162;13.574;2022-08-14T07:31:07;24.10;99.90
1417;DHT22;703;51.162;13.574;2022-08-14T07:36:03;24.40;99.90
1417;DHT22;703;51.162;13.574;2022-08-14T07:38:30;24.20;99.90
1417;DHT22;703;51.162;13.574;2022-08-14T07:40:56;24.10;99.90
1417;DHT22;703;51.162;13.574;2022-08-14T07:43:23;24.00;99.90
1417;DHT22;703;51.162;13.574;2022-08-14T07:45:49;24.00;99.90
1417;DHT22;703;51.162;13.574;2022-08-14T07:48:15;24.10;99.90
1417;DHT22;703;51.162;13.574;2022-08-14T07:50:40;24.20;99.90
1417;DHT22;703;51.162;13.574;2022-08-14T07:53:06;24.20;99.90
1417;DHT22;703;51.162;13.574;2022-08-14T07:55:32;24.40;99.90
1417;DHT22;703;51.162;13.574;2022-08-14T07:57:58;24.80;99.90
1417;DHT22;703;51.162;13.574;2022-08-14T08:00:25;25.00;99.90
1417;DHT22;703;51.162;13.574;2022-08-14T08:02:52;25.00;99.90
1417;DHT22;703;51.162;13.574;2022-08-14T08:05:20;25.20;99.90
1417;DHT22;703;51.162;13.574;2022-08-14T08:07:49;25.20;99.90
1417;DHT22;703;51.162;13.574;2022-08-14T08:10:25;25.60;99.90
1417;DHT22;703;51.162;13.574;2022-08-14T08:13:11;25.60;99.90
1417;DHT22;703;51.162;13.574;2022-08-14T08:15:39;25.70;99.90
1417;DHT22;703;51.162;13.574;2022-08-14T08:18:07;25.70;99.90
1417;DHT22;703;51.162;13.574;2022-08-14T08:20:35;25.70;99.90
1417;DHT22;703;51.162;13.574;2022-08-14T08:23:03;25.60;99.90
1417;DHT22;703;51.162;13.574;2022-08-14T08:25:32;25.50;99.90
1417;DHT22;703;51.162;13.574;2022-08-14T08:28:05;25.60;99.90
1417;DHT22;703;51.162;13.574;2022-08-14T08:30:34;25.50;99.90
1417;DHT22;703;51.162;13.574;2022-08-14T08:33:02;25.90;99.90
1417;DHT22;703;51.162;13.574;2022-08-14T08:35:31;26.00;99.90
1417;DHT22;703;51.162;13.574;2022-08-14T08:38:19;26.10;99.90
1417;DHT22;703;51.162;13.574;2022-08-14T08:40:49;26.40;99.90
1417;DHT22;703;51.162;13.574;2022-08-14T08:43:30;26.60;99.90
1417;DHT22;703;51.162;13.574;2022-08-14T08:46:00;27.20;99.90
1417;DHT22;703;51.162;13.574;2022-08-14T08:49:09;27.20;99.90
1417;DHT22;703;51.162;13.574;2022-08-14T08:51:24;27.10;99.90
1417;DHT22;703;51.162;13.574;2022-08-14T08:56:47;27.30;99.90
1417;DHT22;703;51.162;13.574;2022-08-14T08:59:23;27.40;99.90
1417;DHT22;703;51.162;13.574;2022-08-14T09:01:53;27.50;99.90
1417;DHT22;703;51.162;13.574;2022-08-14T09:04:21;27.60;99.90
1417;DHT22;703;51.162;13.574;2022-08-14T09:06:47;27.80;99.90
1417;DHT22;703;51.162;13.574;2022-08-14T09:09:25;27.60;99.90
1417;DHT22;703;51.162;13.574;2022-08-14T09:11:53;27.70;99.90
1417;DHT22;703;51.162;13.574;2022-08-14T09:14:23;28.10;99.90
1417;DHT22;703;51.162;13.574;2022-08-14T09:16:50;28.50;99.90
1417;DHT22;703;51.162;13.574;2022-08-14T09:19:16;28.70;99.90
1417;DHT22;703;51.162;13.574;2022-08-14T09:21:43;29.30;99.90
1417;DHT22;703;51.162;13.574;2022-08-14T09:24:09;29.20;99.90
1417;DHT22;703;51.162;13.574;2022-08-14T09:26:36;29.00;99.90
1417;DHT22;703;51.162;13.574;2022-08-14T09:29:03;28.70;99.90
1417;DHT22;703;51.162;13.574;2022-08-14T09:31:30;28.50;99.90
1417;DHT22;703;51.162;13.574;2022-08-14T09:36:54;29.00;99.90
1417;DHT22;703;51.162;13.574;2022-08-14T09:45:46;28.20;99.90
1417;DHT22;703;51.162;13.574;2022-08-14T09:48:21;28.60;99.90
1417;DHT22;703;51.162;13.574;2022-08-14T09:50:49;28.90;99.90
1417;DHT22;703;51.162;13.574;2022-08-14T09:56:01;29.40;99.90
1417;DHT22;703;51.162;13.574;2022-08-14T09:58:41;29.40;99.90
1417;DHT22;703;51.162;13.574;2022-08-14T10:01:10;29.70;99.90
1417;DHT22;703;51.162;13.574;2022-08-14T10:03:38;30.60;99.90
1417;DHT22;703;51.162;13.574;2022-08-14T10:06:13;30.00;99.90
1417;DHT22;703;51.162;13.574;2022-08-14T10:11:29;29.50;99.90
1417;DHT22;703;51.162;13.574;2022-08-14T10:14:10;29.70;99.90
1417;DHT22;703;51.162;13.574;2022-08-14T10:16:41;29.50;99.90
1417;DHT22;703;51.162;13.574;2022-08-14T10:19:10;29.50;99.90
1417;DHT22;703;51.162;13.574;2022-08-14T10:21:38;30.10;99.90
1417;DHT22;703;51.162;13.574;2022-08-14T10:24:04;30.10;99.90
1417;DHT22;703;51.162;13.574;2022-08-14T10:26:33;29.50;99.90
1417;DHT22;703;51.162;13.574;2022-08-14T10:29:07;29.60;99.90
1417;DHT22;703;51.162;13.574;2022-08-14T10:31:34;30.60;99.90
1417;DHT22;703;51.162;13.574;2022-08-14T10:34:08;30.40;99.90
1417;DHT22;703;51.162;13.574;2022-08-14T10:36:43;30.60;99.90
1417;DHT22;703;51.162;13.574;2022-08-14T10:39:19;30.60;99.90
1417;DHT22;703;51.162;13.574;2022-08-14T10:41:45;30.30;99.90
1417;DHT22;703;51.162;13.574;2022-08-14T10:44:14;28.70;99.90
1417;DHT22;703;51.162;13.574;2022-08-14T10:49:21;30.30;99.90
1417;DHT22;703;51.162;13.574;2022-08-14T10:52:04;29.70;99.90
1417;DHT22;703;51.162;13.574;2022-08-14T10:54:33;30.60;99.90
1417;DHT22;703;51.162;13.574;2022-08-14T10:59:56;31.00;99.90
1417;DHT22;703;51.162;13.574;2022-08-14T11:07:27;31.40;99.90
1417;DHT22;703;51.162;13.574;2022-08-14T11:09:56;31.20;99.90
1417;DHT22;703;51.162;13.574;2022-08-14T11:12:24;31.50;99.90
1417;DHT22;703;51.162;13.574;2022-08-14T11:17:17;32.60;99.90
1417;DHT22;703;51.162;13.574;2022-08-14T11:19:44;31.10;99.90
1417;DHT22;703;51.162;13.574;2022-08-14T11:22:10;31.60;99.90
1417;DHT22;703;51.162;13.574;2022-08-14T11:24:37;31.60;99.90
1417;DHT22;703;51.162;13.574;2022-08-14T11:27:04;31.30;99.90
1417;DHT22;703;51.162;13.574;2022-08-14T11:29:30;31.00;99.90
1417;DHT22;703;51.162;13.574;2022-08-14T11:31:58;31.60;99.90
1417;DHT22;703;51.162;13.574;2022-08-14T11:34:24;30.70;99.90
1417;DHT22;703;51.162;13.574;2022-08-14T11:36:50;30.80;99.90
1417;DHT22;703;51.162;13.574;2022-08-14T11:39:20;31.00;99.90
1417;DHT22;703;51.162;13.574;2022-08-14T11:41:46;30.90;99.90
1417;DHT22;703;51.162;13.574;2022-08-14T11:44:11;30.60;99.90
1417;DHT22;703;51.162;13.574;2022-08-14T11:46:37;30.50;99.90
1417;DHT22;703;51.162;13.574;2022-08-14T11:49:04;30.30;99.90
1417;DHT22;703;51.162;13.574;2022-08-14T11:51:30;29.90;99.90
1417;DHT22;703;51.162;13.574;2022-08-14T11:54:00;29.60;99.90
1417;DHT22;703;51.162;13.574;2022-08-14T11:56:33;29.60;99.90
1417;DHT22;703;51.162;13.574;2022-08-14T11:59:00;29.80;99.90
1417;DHT22;703;51.162;13.574;2022-08-14T12:01:28;29.50;99.90
1417;DHT22;703;51.162;13.574;2022-08-14T12:04:06;29.70;99.90
1417;DHT22;703;51.162;13.574;2022-08-14T12:06:32;29.90;99.90
1417;DHT22;703;51.162;13.574;2022-08-14T12:09:08;30.30;99.90
1417;DHT22;703;51.162;13.574;2022-08-14T12:11:40;30.20;99.90
1417;DHT22;703;51.162;13.574;2022-08-14T12:14:07;29.90;99.90
1417;DHT22;703;51.162;13.574;2022-08-14T12:16:33;29.70;99.90
1417;DHT22;703;51.162;13.574;2022-08-14T12:19:00;29.20;99.90
1417;DHT22;703;51.162;13.574;2022-08-14T12:21:26;29.20;99.90
1417;DHT22;703;51.162;13.574;2022-08-14T12:24:05;29.30;99.90
1417;DHT22;703;51.162;13.574;2022-08-14T12:26:31;29.30;99.90
1417;DHT22;703;51.162;13.574;2022-08-14T12:29:12;29.40;99.90
1417;DHT22;703;51.162;13.574;2022-08-14T12:31:39;29.30;99.90
1417;DHT22;703;51.162;13.574;2022-08-14T12:34:11;29.40;99.90
1417;DHT22;703;51.162;13.574;2022-08-14T12:36:37;29.50;99.90
1417;DHT22;703;51.162;13.574;2022-08-14T12:39:15;29.00;99.90
1417;DHT22;703;51.162;13.574;2022-08-14T12:41:48;29.00;99.90
1417;DHT22;703;51.162;13.574;2022-08-14T12:44:17;28.90;99.90
1417;DHT22;703;51.162;13.574;2022-08-14T12:47:08;28.80;99.90
1417;DHT22;703;51.162;13.574;2022-08-14T12:49:37;28.70;99.90
1417;DHT22;703;51.162;13.574;2022-08-14T12:52:04;28.80;99.90
1417;DHT22;703;51.162;13.574;2022-08-14T12:54:32;28.70;99.90
1417;DHT22;703;51.162;13.574;2022-08-14T12:57:10;28.70;99.90
1417;DHT22;703;51.162;13.574;2022-08-14T12:59:38;28.90;99.90
1417;DHT22;703;51.162;13.574;2022-08-14T13:02:04;28.80;99.90
1417;DHT22;703;51.162;13.574;2022-08-14T13:04:30;29.00;99.90
1417;DHT22;703;51.162;13.574;2022-08-14T13:07:02;28.90;99.90
1417;DHT22;703;51.162;13.574;2022-08-14T13:09:33;28.80;99.90
1417;DHT22;703;51.162;13.574;2022-08-14T13:12:01;28.70;99.90
1417;DHT22;703;51.162;13.574;2022-08-14T13:14:28;28.60;99.90
1417;DHT22;703;51.162;13.574;2022-08-14T13:16:58;28.60;99.90
1417;DHT22;703;51.162;13.574;2022-08-14T13:19:24;28.90;99.90
1417;DHT22;703;51.162;13.574;2022-08-14T13:21:52;29.00;99.90
1417;DHT22;703;51.162;13.574;2022-08-14T13:24:21;28.80;99.90
1417;DHT22;703;51.162;13.574;2022-08-14T13:26:49;28.70;99.90
1417;DHT22;703;51.162;13.574;2022-08-14T13:29:27;28.80;99.90
1417;DHT22;703;51.162;13.574;2022-08-14T13:31:55;28.70;99.90
1417;DHT22;703;51.162;13.574;2022-08-14T13:34:27;28.70;99.90
1417;DHT22;703;51.162;13.574;2022-08-14T13:36:54;31.30;99.90
1417;DHT22;703;51.162;13.574;2022-08-14T13:39:24;29.00;99.90
1417;DHT22;703;51.162;13.574;2022-08-14T13:41:50;29.00;99.90
1417;DHT22;703;51.162;13.574;2022-08-14T13:44:17;29.20;99.90
1417;DHT22;703;51.162;13.574;2022-08-14T13:46:47;29.30;99.90
1417;DHT22;703;51.162;13.574;2022-08-14T13:49:12;30.10;99.90
1417;DHT22;703;51.162;13.574;2022-08-14T13:51:43;30.10;99.90
1417;DHT22;703;51.162;13.574;2022-08-14T13:54:15;30.30;99.90
1417;DHT22;703;51.162;13.574;2022-08-14T13:56:42;30.70;99.90
1417;DHT22;703;51.162;13.574;2022-08-14T13:59:09;30.60;99.90
1417;DHT22;703;51.162;13.574;2022-08-14T14:01:35;30.60;99.90
1417;DHT22;703;51.162;13.574;2022-08-14T14:04:04;30.60;99.90
1417;DHT22;703;51.162;13.574;2022-08-14T14:06:32;30.50;99.90
1417;DHT22;703;51.162;13.574;2022-08-14T14:08:58;30.70;99.90
1417;DHT22;703;51.162;13.574;2022-08-14T14:11:27;30.70;99.90
1417;DHT22;703;51.162;13.574;2022-08-14T14:13:54;30.30;99.90
1417;DHT22;703;51.162;13.574;2022-08-14T14:16:21;30.50;99.90
1417;DHT22;703;51.162;13.574;2022-08-14T14:18:51;30.60;99.90
1417;DHT22;703;51.162;13.574;2022-08-14T14:21:24;31.00;99.90
1417;DHT22;703;51.162;13.574;2022-08-14T14:23:53;31.30;99.90
1417;DHT22;703;51.162;13.574;2022-08-14T14:26:19;31.10;99.90
1417;DHT22;703;51.162;13.574;2022-08-14T14:28:52;30.70;99.90
1417;DHT22;703;51.162;13.574;2022-08-14T14:31:21;30.60;99.90
1417;DHT22;703;51.162;13.574;2022-08-14T14:33:50;30.60;99.90
1417;DHT22;703;51.162;13.574;2022-08-14T14:36:21;30.60;99.90
1417;DHT22;703;51.162;13.574;2022-08-14T14:41:22;30.30;99.90
1417;DHT22;703;51.162;13.574;2022-08-14T14:43:49;30.20;99.90
1417;DHT22;703;51.162;13.574;2022-08-14T14:46:17;29.90;99.90
1417;DHT22;703;51.162;13.574;2022-08-14T14:48:43;29.80;99.90
1417;DHT22;703;51.162;13.574;2022-08-14T14:51:11;29.80;99.90
1417;DHT22;703;51.162;13.574;2022-08-14T14:53:39;29.60;99.90
1417;DHT22;703;51.162;13.574;2022-08-14T14:56:05;29.40;99.90
1417;DHT22;703;51.162;13.574;2022-08-14T14:58:33;29.30;99.90
1417;DHT22;703;51.162;13.574;2022-08-14T15:01:05;29.20;99.90
1417;DHT22;703;51.162;13.574;2022-08-14T15:03:37;29.40;99.90
1417;DHT22;703;51.162;13.574;2022-08-14T15:06:04;29.80;99.90
1417;DHT22;703;51.162;13.574;2022-08-14T15:08:30;29.80;99.90
1417;DHT22;703;51.162;13.574;2022-08-14T15:10:57;29.80;99.90
1417;DHT22;703;51.162;13.574;2022-08-14T15:13:27;30.10;99.90
1417;DHT22;703;51.162;13.574;2022-08-14T15:15:53;30.40;99.90
1417;DHT22;703;51.162;13.574;2022-08-14T15:18:22;30.90;99.90
1417;DHT22;703;51.162;13.574;2022-08-14T15:20:51;30.20;99.90
1417;DHT22;703;51.162;13.574;2022-08-14T15:23:19;30.30;99.90
1417;DHT22;703;51.162;13.574;2022-08-14T15:25:46;30.90;99.90
1417;DHT22;703;51.162;13.574;2022-08-14T15:28:12;31.50;99.90
1417;DHT22;703;51.162;13.574;2022-08-14T15:30:42;31.80;99.90
1417;DHT22;703;51.162;13.574;2022-08-14T15:33:08;31.90;99.90
1417;DHT22;703;51.162;13.574;2022-08-14T15:35:35;31.20;99.90
1417;DHT22;703;51.162;13.574;2022-08-14T15:38:02;30.70;99.90
1417;DHT22;703;51.162;13.574;2022-08-14T15:40:39;30.20;99.90
1417;DHT22;703;51.162;13.574;2022-08-14T15:43:09;30.30;99.90
1417;DHT22;703;51.162;13.574;2022-08-14T15:45:39;30.30;99.90
1417;DHT22;703;51.162;13.574;2022-08-14T15:48:08;30.60;99.90
1417;DHT22;703;51.162;13.574;2022-08-14T15:50:34;30.90;99.90
1417;DHT22;703;51.162;13.574;2022-08-14T15:53:00;30.30;99.90
1417;DHT22;703;51.162;13.574;2022-08-14T15:55:26;29.90;99.90
1417;DHT22;703;51.162;13.574;2022-08-14T15:57:54;29.70;99.90
1417;DHT22;703;51.162;13.574;2022-08-14T16:00:20;29.70;99.90
1417;DHT22;703;51.162;13.574;2022-08-14T16:03:05;30.00;99.90
1417;DHT22;703;51.162;13.574;2022-08-14T16:05:34;30.20;99.90
1417;DHT22;703;51.162;13.574;2022-08-14T16:08:00;30.50;99.90
1417;DHT22;703;51.162;13.574;2022-08-14T16:10:30;30.60;99.90
1417;DHT22;703;51.162;13.574;2022-08-14T16:12:56;30.10;99.90
1417;DHT22;703;51.162;13.574;2022-08-14T16:15:21;30.00;99.90
1417;DHT22;703;51.162;13.574;2022-08-14T16:17:47;30.30;99.90
1417;DHT22;703;51.162;13.574;2022-08-14T16:20:13;30.10;99.90
1417;DHT22;703;51.162;13.574;2022-08-14T16:22:39;29.90;99.90
1417;DHT22;703;51.162;13.574;2022-08-14T16:25:06;30.10;99.90
1417;DHT22;703;51.162;13.574;2022-08-14T16:27:35;30.20;99.90
1417;DHT22;703;51.162;13.574;2022-08-14T16:30:04;30.00;99.90
1417;DHT22;703;51.162;13.574;2022-08-14T16:32:30;29.60;99.90
1417;DHT22;703;51.162;13.574;2022-08-14T16:34:57;29.80;99.90
1417;DHT22;703;51.162;13.574;2022-08-14T16:37:23;30.30;99.90
1417;DHT22;703;51.162;13.574;2022-08-14T16:39:49;30.20;99.90
1417;DHT22;703;51.162;13.574;2022-08-14T16:42:15;29.90;99.90
1417;DHT22;703;51.162;13.574;2022-08-14T16:44:42;29.80;99.90
1417;DHT22;703;51.162;13.574;2022-08-14T16:47:12;29.80;99.90
1417;DHT22;703;51.162;13.574;2022-08-14T16:49:39;29.80;99.90
1417;DHT22;703;51.162;13.574;2022-08-14T16:52:08;29.60;99.90
1417;DHT22;703;51.162;13.574;2022-08-14T16:54:34;29.40;99.90